Latest Weather Observations for Gatton

IDQ60801

Issued at 4:32 pm EST Thursday 5 May 2016 (issued every 30 minutes, with the page automatically refreshed every 10 minutes)

About weather observations | Map of weather stations | Latest weather observations for QLD | Other Formats
Station Details ID: 040082 Name: UNIVERSITY OF QUEENSLAND GATTON Lat: -27.54 Lon: 152.34 Height: 89.0 m
Data from the previous 72 hours. | See also: Recent months at Gatton
Date/Time
EST
Temp
°C
App
Temp
°C
Dew
Point
Rel
Hum
%
Delta-T
°C
Wind Press
QNH
hPa
Press
MSL
hPa
Rain
since 9 am
mm
Dir
 
Spd
km/h
Gust
km/h
Spd
kts
Gust
kts
05/04:30pm 26.6 25.0 8.6 32 9.8 E 7 13 4 7 - - 0.0
05/04:00pm 27.2 25.8 9.5 33 9.8 ENE 7 13 4 7 - - 0.0
05/03:30pm 27.3 25.5 9.6 33 9.8 NNE 9 11 5 6 - - 0.0
05/03:00pm 27.4 26.3 10.6 35 9.5 NE 7 15 4 8 - - 0.0
05/02:30pm 27.3 26.5 11.7 37 9.0 ENE 7 19 4 10 - - 0.0
05/02:00pm 26.7 26.1 13.4 43 7.9 NNE 9 15 5 8 - - 0.0
05/01:30pm 27.3 26.4 13.6 43 8.1 NE 11 26 6 14 - - 0.0
05/01:00pm 26.7 25.1 12.7 42 8.2 NNE 13 20 7 11 - - 0.0
05/12:30pm 25.9 24.4 13.1 45 7.5 NNE 13 20 7 11 - - 0.0
05/12:00pm 25.4 24.5 13.6 48 7.0 NE 11 20 6 11 - - 0.0
05/11:30am 25.5 24.5 13.4 47 7.1 NE 11 19 6 10 - - 0.0
05/11:00am 24.2 24.2 15.1 56 5.5 NE 9 15 5 8 - - 0.0
05/10:30am 23.6 24.2 15.4 60 4.9 NNE 6 13 3 7 - - 0.0
05/10:00am 22.1 23.0 15.2 65 4.1 S 4 7 2 4 - - 0.0
05/09:30am 21.1 22.1 15.4 70 3.4 WNW 4 11 2 6 - - 0.0
05/09:00am 19.6 19.8 14.8 74 2.8 WSW 7 11 4 6 - - 0.0
05/08:30am 17.6 17.2 14.1 80 2.0 WSW 9 11 5 6 - - 0.0
05/08:00am 15.6 14.6 13.4 87 1.2 W 11 17 6 9 - - 0.0
05/07:30am 14.0 12.7 12.4 90 0.9 W 11 15 6 8 - - 0.0
05/07:00am 12.7 11.5 11.6 93 0.6 W 9 13 5 7 - - 0.0
05/06:30am 11.8 10.3 10.7 93 0.6 WSW 9 13 5 7 - - 0.0
05/06:00am 11.7 10.2 10.6 93 0.6 W 9 11 5 6 - - 0.0
05/05:30am 11.8 10.7 10.5 92 0.7 W 7 9 4 5 - - 0.0
05/05:00am 11.9 10.4 10.5 91 0.7 W 9 13 5 7 - - 0.0
05/04:30am 12.2 10.8 10.8 91 0.7 W 9 11 5 6 - - 0.0
05/04:00am 12.3 10.8 10.7 90 0.8 W 9 11 5 6 - - 0.0
05/03:30am 12.4 10.9 10.5 88 1.0 W 9 11 5 6 - - 0.0
05/03:00am 12.5 10.6 10.6 88 1.0 W 11 13 6 7 - - 0.0
05/02:30am 12.9 10.6 10.4 85 1.3 W 13 15 7 8 - - 0.0
05/02:00am 13.3 11.5 10.8 85 1.3 W 11 15 6 8 - - 0.0
05/01:30am 13.6 11.8 10.8 83 1.5 W 11 15 6 8 - - 0.0
05/01:00am 13.8 12.0 11.0 83 1.5 W 11 13 6 7 - - 0.0
05/12:30am 13.9 12.6 11.1 83 1.5 W 9 11 5 6 - - 0.0
05/12:00am 14.2 13.0 11.5 84 1.4 W 9 11 5 6 - - 0.0
 
Date/Time
EST
Temp
°C
App
Temp
°C
Dew
Point
Rel
Hum
%
Delta-T
°C
Wind Press
QNH
hPa
Press
MSL
hPa
Rain
since 9 am
mm
Dir
 
Spd
km/h
Gust
km/h
Spd
kts
Gust
kts
04/11:30pm 14.5 13.4 12.0 85 1.4 WSW 9 11 5 6 - - 0.0
04/11:00pm 14.4 14.7 12.3 87 1.1 NNE 2 9 1 5 - - 0.0
04/10:30pm 14.3 15.0 12.2 87 1.1 CALM 0 0 0 0 - - 0.0
04/10:00pm 14.6 15.3 12.1 85 1.4 CALM 0 0 0 0 - - 0.0
04/09:30pm 14.9 15.5 12.0 83 1.6 CALM 0 0 0 0 - - 0.0
04/09:00pm 15.5 16.2 12.3 81 1.8 CALM 0 0 0 0 - - 0.0
04/08:30pm 16.4 17.2 12.6 78 2.1 CALM 0 0 0 0 - - 0.0
04/08:00pm 16.7 17.2 11.6 72 2.8 CALM 0 0 0 0 - - 0.0
04/07:30pm 19.2 19.9 12.2 64 3.9 CALM 0 0 0 0 - - 0.0
04/07:00pm 20.6 19.4 12.8 61 4.4 ENE 11 13 6 7 - - 0.0
04/06:30pm 21.4 19.7 12.5 57 5.1 ENE 13 17 7 9 - - 0.0
04/06:00pm 22.0 19.9 11.1 50 6.1 ENE 13 26 7 14 - - 0.0
04/05:30pm 23.2 21.0 9.2 41 7.6 ENE 11 13 6 7 - - 0.0
04/05:00pm 26.0 24.8 6.6 29 10.2 W 2 9 1 5 - - 0.0
04/04:30pm 29.0 27.3 5.8 23 12.2 WNW 4 7 2 4 - - 0.0
04/04:00pm 28.9 25.8 3.7 20 12.8 WNW 9 11 5 6 - - 0.0
04/03:30pm 29.1 26.2 4.6 21 12.6 WNW 9 13 5 7 - - 0.0
04/03:00pm 29.3 25.9 4.0 20 12.9 W 11 19 6 10 - - 0.0
04/02:30pm 28.8 25.3 5.6 23 12.2 W 13 22 7 12 - - 0.0
04/02:00pm 28.8 24.6 5.6 23 12.2 W 17 24 9 13 - - 0.0
04/01:30pm 28.6 24.6 6.7 25 11.7 W 17 26 9 14 - - 0.0
04/01:00pm 27.7 24.2 7.0 27 11.0 WNW 15 22 8 12 - - 0.0
04/12:30pm 27.5 24.3 8.4 30 10.4 WNW 15 20 8 11 - - 0.0
04/12:00pm 26.5 24.1 8.5 32 9.8 WNW 11 20 6 11 - - 0.0
04/11:30am 25.6 22.4 8.6 34 9.2 WNW 15 24 8 13 - - 0.0
04/11:00am 25.3 22.7 10.7 40 8.2 W 15 22 8 12 - - 0.0
04/10:30am 24.2 22.5 12.5 48 6.7 W 13 20 7 11 - - 0.0
04/10:00am 23.2 21.2 12.8 52 6.0 W 15 24 8 13 - - 0.0
04/09:30am 22.7 20.5 13.2 55 5.5 W 17 26 9 14 - - 0.0
04/09:00am 22.5 20.4 14.6 61 4.7 WSW 19 28 10 15 - - 0.0
04/08:30am 21.4 19.2 14.3 64 4.2 W 19 28 10 15 - - 0.0
04/08:00am 20.5 19.1 14.6 69 3.5 WSW 15 20 8 11 - - 0.0
04/07:30am 18.8 18.2 14.5 76 2.5 WNW 11 15 6 8 - - 0.0
04/07:00am 17.0 17.9 12.9 77 2.3 CALM 0 0 0 0 - - 0.0
04/06:30am 17.7 17.5 13.6 77 2.3 WSW 7 11 4 6 - - 0.0
04/06:00am 17.0 17.6 14.3 84 1.5 S 4 7 2 4 - - 0.0
04/05:30am 16.8 16.8 14.1 84 1.5 WSW 7 11 4 6 - - 0.0
04/05:00am 16.8 17.3 14.1 84 1.5 WSW 4 7 2 4 - - 0.0
04/04:30am 17.1 17.3 14.6 85 1.4 W 7 9 4 5 - - 0.0
04/04:00am 16.5 16.1 14.2 86 1.3 WSW 9 11 5 6 - - 0.0
04/03:30am 16.8 17.5 14.6 87 1.3 WSW 4 9 2 5 - - 0.0
04/03:00am 17.1 17.9 14.9 87 1.3 WSW 4 9 2 5 - - 0.0
04/02:30am 17.2 17.5 15.0 87 1.3 WSW 7 11 4 6 - - 0.0
04/02:00am 17.4 17.7 14.9 85 1.5 WSW 7 11 4 6 - - 0.0
04/01:30am 18.1 18.4 15.0 82 1.8 WSW 7 9 4 5 - - 0.0
04/01:00am 18.9 19.0 15.4 80 2.1 W 9 11 5 6 - - 0.0
04/12:30am 18.8 18.9 15.5 81 2.0 W 9 11 5 6 - - 0.0
04/12:00am 18.6 18.6 15.3 81 1.9 WSW 9 11 5 6 - - 0.0
 
Date/Time
EST
Temp
°C
App
Temp
°C
Dew
Point
Rel
Hum
%
Delta-T
°C
Wind Press
QNH
hPa
Press
MSL
hPa
Rain
since 9 am
mm
Dir
 
Spd
km/h
Gust
km/h
Spd
kts
Gust
kts
03/11:30pm 19.1 19.2 15.4 79 2.2 WSW 9 11 5 6 - - 0.0
03/11:00pm 19.8 19.6 15.7 77 2.4 WSW 11 15 6 8 - - 0.0
03/10:30pm 19.1 19.4 16.0 82 1.9 WSW 9 11 5 6 - - 0.0
03/10:00pm 19.0 19.6 15.7 81 2.0 W 7 9 4 5 - - 0.0
03/09:30pm 19.4 19.6 15.7 79 2.2 WSW 9 11 5 6 - - 0.0
03/09:00pm 20.1 20.2 15.5 75 2.7 WSW 9 11 5 6 - - 0.0
03/08:30pm 20.4 21.1 16.0 76 2.6 WSW 7 11 4 6 - - 0.0
03/08:00pm 20.7 21.4 15.7 73 3.0 WSW 6 7 3 4 - - 0.0
03/07:30pm 21.4 22.0 15.9 71 3.3 WSW 7 9 4 5 - - 0.0
03/07:00pm 21.6 22.5 16.1 71 3.3 W 6 9 3 5 - - 0.0
03/06:30pm 20.8 22.8 16.0 74 2.9 CALM 0 0 0 0 - - 0.0
03/06:00pm 22.4 23.5 15.7 66 4.0 W 4 7 2 4 - - 0.0
03/05:30pm 23.4 24.0 15.7 62 4.7 W 7 9 4 5 - - 0.0
03/05:00pm 24.8 25.4 15.4 56 5.7 WSW 6 9 3 5 - - 0.0
03/04:30pm 25.7 26.1 15.4 53 6.3 SW 7 11 4 6 - - 0.0
03/04:00pm 26.8 26.0 15.2 49 7.1 SW 13 20 7 11 - - 0.0
03/03:30pm 27.3 25.8 15.3 48 7.3 WSW 17 24 9 13 - - 0.0
03/03:00pm 27.5 25.7 15.5 48 7.4 WSW 19 30 10 16 - - 0.0
03/02:30pm 27.7 26.1 16.0 49 7.2 WSW 19 30 10 16 - - 0.0
03/02:00pm 27.2 25.2 15.6 49 7.1 W 20 28 11 15 - - 0.0
03/01:30pm 27.3 25.1 16.0 50 7.0 WSW 22 32 12 17 - - 0.0
03/01:00pm 26.8 25.2 16.1 52 6.6 SW 19 32 10 17 - - 0.0
03/12:30pm 26.4 25.0 16.6 55 6.1 WSW 19 28 10 15 - - 0.0
03/12:00pm 26.1 25.6 16.9 57 5.7 WSW 15 26 8 14 - - 0.0
03/11:30am 25.6 25.0 16.7 58 5.5 WSW 15 26 8 14 - - 0.0
03/11:00am 25.0 23.5 16.7 60 5.1 WSW 20 30 11 16 - - 0.0
03/10:30am 24.5 23.7 17.0 63 4.7 WSW 17 26 9 14 - - 0.0
03/10:00am 24.0 23.4 17.5 67 4.1 WSW 17 26 9 14 - - 0.0
03/09:30am 23.0 22.1 17.7 72 3.3 WSW 19 30 10 16 - - 0.0
03/09:00am 22.1 21.7 18.1 78 2.5 WSW 17 22 9 12 - - 11.0
03/08:30am 20.9 20.8 17.9 83 1.9 W 15 19 8 10 - - 11.0
03/08:00am 19.7 20.0 18.0 90 1.1 WSW 13 17 7 9 - - 11.0
03/07:30am 18.5 19.4 17.5 94 0.6 W 9 11 5 6 - - 11.0
03/07:00am 17.7 18.9 16.9 95 0.5 WNW 6 9 3 5 - - 11.0
03/06:30am 16.9 18.9 15.9 94 0.6 CALM 0 0 0 0 - - 11.0
03/06:00am 17.5 19.8 16.7 95 0.5 CALM 0 0 0 0 - - 11.0
03/05:30am 18.0 20.5 17.2 95 0.5 CALM 0 6 0 3 - - 11.0
03/05:00am 18.0 19.7 17.2 95 0.5 WNW 4 7 2 4 - - 11.0
03/04:30am 17.7 20.0 16.7 94 0.6 CALM 0 0 0 0 - - 11.0
03/04:00am 18.1 20.5 16.9 93 0.7 CALM 0 0 0 0 - - 11.0
03/03:30am 18.3 20.7 17.1 93 0.7 CALM 0 0 0 0 - - 11.0
03/03:00am 18.5 20.7 17.5 94 0.6 W 2 7 1 4 - - 11.0
03/02:30am 18.6 19.9 17.6 94 0.6 W 7 11 4 6 - - 11.0
03/02:00am 18.5 21.1 17.5 94 0.6 CALM 0 0 0 0 - - 10.8
03/01:30am 18.5 20.3 17.5 94 0.6 W 4 9 2 5 - - 10.8
03/01:00am 18.3 20.7 17.1 93 0.7 CALM 0 0 0 0 - - 10.6
03/12:30am 18.3 20.7 17.1 93 0.7 CALM 0 0 0 0 - - 10.6
03/12:00am 18.3 20.0 17.1 93 0.7 NW 4 7 2 4 - - 10.6
 
Date/Time
EST
Temp
°C
App
Temp
°C
Dew
Point
Rel
Hum
%
Delta-T
°C
Wind Press
QNH
hPa
Press
MSL
hPa
Rain
since 9 am
mm
Dir
 
Spd
km/h
Gust
km/h
Spd
kts
Gust
kts
02/11:30pm 18.3 19.0 17.0 92 0.8 WSW 9 11 5 6 - - 10.6
02/11:00pm 18.7 18.8 17.4 92 0.8 WSW 13 17 7 9 - - 10.6
02/10:30pm 18.9 18.2 17.4 91 0.9 W 17 28 9 15 - - 10.6
02/10:00pm 19.0 19.4 17.3 90 1.0 WSW 11 15 6 8 - - 9.2
02/09:30pm 19.0 19.9 17.5 91 0.9 W 9 13 5 7 - - 9.2
02/09:00pm 18.9 19.7 17.4 91 0.9 WSW 9 13 5 7 - - 9.2
02/08:30pm 18.7 20.3 17.0 90 1.0 NW 4 9 2 5 - - 9.2
02/08:00pm 18.6 18.6 17.1 91 0.9 WSW 13 17 7 9 - - 9.2
02/07:30pm 18.4 14.9 16.6 89 1.1 SW 30 67 16 36 - - 9.0
02/07:28pm 18.5 14.3 16.3 87 1.3 SW 33 67 18 36 - - 8.6
02/07:26pm 18.8 13.4 15.9 83 1.7 SW 39 67 21 36 - - 5.4
02/07:20pm 22.1 15.6 15.2 65 4.1 W 43 61 23 33 - - 0.2
02/07:18pm 23.3 20.2 16.6 66 4.1 NW 28 56 15 30 - - 0.2
02/07:00pm 24.2 25.5 19.3 74 3.1 ENE 11 15 6 8 - - 0.2
02/06:30pm 24.3 25.2 18.5 70 3.7 E 11 13 6 7 - - 0.2
02/06:00pm 25.1 26.4 17.6 63 4.7 E 7 11 4 6 - - 0.2
02/05:30pm 25.6 26.1 17.5 61 5.1 E 11 15 6 8 - - 0.2
02/05:00pm 26.0 26.7 17.1 58 5.6 ENE 9 15 5 8 - - 0.2

Other Formats:

Comma delimited format used in spreadsheet applications
http://www.bom.gov.au/fwo/IDQ60801/IDQ60801.94562.axf

JavaScript Object Notation format (JSON) in row-major order
http://www.bom.gov.au/fwo/IDQ60801/IDQ60801.94562.json